Time;durP1;ratioP1;P1;durP2;ratioP2;P2;SDS_P1;SDS_P2;PMS_P1;PMS_P2;Temp;Humidity;BMP_temperature;BMP_pressure;BME280_temperature;BME280_humidity;BME280_pressure;Samples;Min_cycle;Max_cycle;Signal;HPM_P1;HPM_P2
2023/07/06 00:01:39;;;;;;;7.83;2.40;;;;;;;18.10;100.00;96345.09;5090217;27;20023;-84
2023/07/06 00:04:04;;;;;;;6.07;2.63;;;;;;;18.09;100.00;96342.66;5106090;28;20023;-84
2023/07/06 00:06:32;;;;;;;6.00;2.13;;;;;;;17.94;100.00;96348.19;5103111;27;20099;-84
2023/07/06 00:08:58;;;;;;;4.73;2.27;;;;;;;17.84;100.00;96335.28;5106771;28;20024;-84
2023/07/06 00:11:27;;;;;;;5.23;2.30;;;;;;;17.75;100.00;96344.44;5074880;28;20077;-84
2023/07/06 00:13:52;;;;;;;3.77;2.13;;;;;;;17.94;100.00;96344.69;5110831;28;20025;-84
2023/07/06 00:16:21;;;;;;;6.57;2.40;;;;;;;17.75;100.00;96343.59;5084806;28;20015;-83
2023/07/06 00:18:47;;;;;;;5.00;2.27;;;;;;;17.84;100.00;96340.59;5092844;28;20019;-84
2023/07/06 00:21:12;;;;;;;5.20;2.40;;;;;;;17.76;100.00;96339.91;5092583;28;20122;-84
2023/07/06 00:23:43;;;;;;;7.93;2.43;;;;;;;18.22;100.00;96349.84;5090352;28;20346;-84
2023/07/06 00:26:11;;;;;;;5.07;2.30;;;;;;;18.26;100.00;96353.72;5082629;28;20019;-84
2023/07/06 00:28:37;;;;;;;6.70;2.07;;;;;;;18.18;100.00;96356.59;5084153;27;20043;-84
2023/07/06 00:31:10;;;;;;;6.00;2.40;;;;;;;18.30;100.00;96358.44;5091969;28;20012;-84
2023/07/06 00:33:36;;;;;;;6.13;2.23;;;;;;;18.42;100.00;96355.97;5106762;28;20024;-84
2023/07/06 00:36:03;;;;;;;6.33;2.70;;;;;;;18.32;100.00;96352.91;5084463;28;20031;-84
2023/07/06 00:38:29;;;;;;;7.60;2.53;;;;;;;18.41;100.00;96356.16;5102741;27;20019;-84
2023/07/06 00:40:57;;;;;;;4.80;2.87;;;;;;;18.52;100.00;96356.38;5101315;28;20614;-84
2023/07/06 00:43:46;;;;;;;6.90;2.63;;;;;;;18.51;100.00;96352.09;5099015;28;20023;-84
2023/07/06 00:46:12;;;;;;;5.17;2.07;;;;;;;18.23;100.00;96356.78;5077836;28;20027;-84
2023/07/06 00:48:44;;;;;;;4.40;2.30;;;;;;;18.47;100.00;96356.16;5078653;27;20030;-84
2023/07/06 00:51:19;;;;;;;7.03;2.80;;;;;;;18.23;100.00;96352.28;5100343;27;20090;-84
2023/07/06 00:54:04;;;;;;;5.70;2.63;;;;;;;18.32;100.00;96350.25;5070865;28;20051;-84
2023/07/06 00:56:37;;;;;;;4.23;2.20;;;;;;;18.48;100.00;96349.03;5092495;27;20055;-84
2023/07/06 00:59:06;;;;;;;4.47;2.17;;;;;;;18.65;100.00;96352.09;5086650;27;20795;-84
2023/07/06 01:01:36;;;;;;;10.10;2.80;;;;;;;18.51;100.00;96349.44;5097975;27;20066;-84
2023/07/06 01:04:20;;;;;;;4.97;2.47;;;;;;;18.67;100.00;96348.16;5092909;28;20038;-84
2023/07/06 01:06:51;;;;;;;4.57;2.10;;;;;;;18.53;100.00;96350.03;5087275;28;20507;-83
2023/07/06 01:09:18;;;;;;;8.23;2.67;;;;;;;18.59;100.00;96345.72;5084769;27;20031;-84
2023/07/06 01:11:44;;;;;;;4.67;2.37;;;;;;;18.67;100.00;96347.34;5097992;28;20059;-84
2023/07/06 01:14:12;;;;;;;6.27;2.80;;;;;;;18.50;100.00;96350.44;5070287;28;20024;-84
2023/07/06 01:16:57;;;;;;;6.00;2.70;;;;;;;18.18;100.00;96352.09;5098723;27;20080;-84
2023/07/06 01:20:00;;;;;;;5.57;2.50;;;;;;;18.61;100.00;96347.16;5074926;27;20052;-83
2023/07/06 01:22:50;;;;;;;7.83;2.93;;;;;;;18.75;100.00;96344.50;5076569;28;20028;-83
2023/07/06 01:25:25;;;;;;;4.37;2.13;;;;;;;18.51;100.00;96348.59;5081098;28;20496;-84
2023/07/06 01:28:09;;;;;;;5.53;2.50;;;;;;;18.37;100.00;96337.13;5101018;27;20401;-85
2023/07/06 01:30:47;;;;;;;6.70;2.63;;;;;;;18.72;100.00;96344.94;5097572;27;20041;-84
2023/07/06 01:33:25;;;;;;;5.63;2.67;;;;;;;18.64;100.00;96340.59;5119250;27;20089;-84
2023/07/06 01:36:01;;;;;;;5.00;2.30;;;;;;;18.84;100.00;96352.06;5100208;28;20034;-84
2023/07/06 01:38:26;;;;;;;7.63;2.83;;;;;;;18.91;100.00;96344.03;5082069;28;20019;-84
2023/07/06 01:40:52;;;;;;;5.87;2.60;;;;;;;18.84;100.00;96337.91;5113069;28;20080;-83
2023/07/06 01:43:20;;;;;;;5.90;2.43;;;;;;;18.87;100.00;96340.16;5094907;28;20032;-84
2023/07/06 01:45:49;;;;;;;7.60;2.43;;;;;;;18.65;100.00;96338.75;5086045;28;20135;-84
2023/07/06 01:48:15;;;;;;;5.17;2.53;;;;;;;18.84;100.00;96335.25;5092421;28;20028;-84
2023/07/06 01:50:51;;;;;;;4.23;2.33;;;;;;;18.65;100.00;96344.09;5082461;28;20031;-84
2023/07/06 01:53:32;;;;;;;6.60;2.93;;;;;;;18.32;100.00;96344.94;5108592;28;20118;-83
2023/07/06 01:56:24;;;;;;;5.27;2.27;;;;;;;18.37;100.00;96343.25;5107313;28;20038;-84
2023/07/06 01:59:07;;;;;;;6.50;2.33;;;;;;;18.45;100.00;96344.94;5100496;28;20039;-84
2023/07/06 02:01:42;;;;;;;6.93;2.58;;;;;;;18.33;100.00;96346.56;5093753;28;20035;-84
2023/07/06 02:04:10;;;;;;;5.87;2.53;;;;;;;18.43;100.00;96340.81;5103396;28;20039;-83
2023/07/06 02:06:37;;;;;;;4.57;2.30;;;;;;;18.51;100.00;96337.94;5103097;28;20083;-83
2023/07/06 02:09:04;;;;;;;4.67;2.33;;;;;;;18.27;100.00;96334.88;5081577;28;20110;-84
2023/07/06 02:11:32;;;;;;;8.97;2.87;;;;;;;17.97;100.00;96326.47;5086163;28;20028;-84
2023/07/06 02:13:57;;;;;;;4.37;2.27;;;;;;;18.04;100.00;96332.63;5083062;28;20149;-84
2023/07/06 02:16:32;;;;;;;7.87;2.70;;;;;;;17.82;100.00;96325.84;5078093;28;20142;-84
2023/07/06 02:18:59;;;;;;;7.17;2.83;;;;;;;17.67;100.00;96325.97;5088900;28;20047;-84
2023/07/06 02:21:25;;;;;;;6.57;2.60;;;;;;;17.82;100.00;96323.19;5073258;28;20051;-84
2023/07/06 02:23:57;;;;;;;7.23;2.90;;;;;;;17.82;100.00;96310.69;5090804;28;20065;-84
2023/07/06 02:26:22;;;;;;;6.23;2.80;;;;;;;17.37;100.00;96317.50;5068985;28;20031;-84
2023/07/06 02:28:48;;;;;;;5.97;2.80;;;;;;;17.53;100.00;96329.63;5090036;28;20023;-84
2023/07/06 02:31:40;;;;;;;6.00;2.20;;;;;;;17.24;100.00;96323.63;5071157;28;20027;-84
2023/07/06 02:34:05;;;;;;;4.80;2.20;;;;;;;17.70;100.00;96319.44;5106658;28;20029;-84
2023/07/06 02:36:32;;;;;;;4.77;2.13;;;;;;;17.59;100.00;96328.84;5093937;28;20669;-84
2023/07/06 02:38:58;;;;;;;4.43;2.20;;;;;;;17.50;100.00;96330.84;5094616;28;20043;-85
2023/07/06 02:41:24;;;;;;;4.47;2.60;;;;;;;17.64;100.00;96339.69;5084910;28;20049;-83
2023/07/06 02:43:52;;;;;;;5.77;2.80;;;;;;;17.88;100.00;96338.34;5073884;28;20114;-83
2023/07/06 02:46:19;;;;;;;6.57;3.00;;;;;;;17.71;100.00;96329.09;5082833;28;20035;-84
2023/07/06 02:48:46;;;;;;;6.60;2.40;;;;;;;17.76;100.00;96323.97;5082719;28;20046;-84
2023/07/06 02:51:12;;;;;;;8.00;2.67;;;;;;;17.86;100.00;96324.41;5067890;28;20028;-84
2023/07/06 02:53:38;;;;;;;5.30;2.20;;;;;;;17.70;100.00;96322.91;5091202;27;20126;-84
2023/07/06 02:56:04;;;;;;;6.87;2.47;;;;;;;17.81;100.00;96316.25;5105653;28;20023;-83
2023/07/06 02:58:29;;;;;;;5.80;2.77;;;;;;;17.90;100.00;96320.31;5092229;27;20019;-84
2023/07/06 03:00:55;;;;;;;6.33;2.40;;;;;;;17.70;100.00;96327.41;5086909;28;20074;-83
2023/07/06 03:03:23;;;;;;;8.70;2.53;;;;;;;17.61;100.00;96326.81;5075951;27;20100;-84
2023/07/06 03:05:49;;;;;;;4.90;2.80;;;;;;;17.69;100.00;96323.94;5101814;28;20083;-83
2023/07/06 03:08:19;;;;;;;5.30;3.23;;;;;;;17.81;100.00;96327.69;5084395;27;20633;-83
2023/07/06 03:10:48;;;;;;;5.23;2.40;;;;;;;17.78;100.00;96332.59;5080123;28;20121;-84
2023/07/06 03:13:28;;;;;;;7.27;3.00;;;;;;;17.36;100.00;96332.66;5076751;28;20023;-83
2023/07/06 03:15:58;;;;;;;9.00;2.93;;;;;;;17.39;100.00;96328.78;5078223;28;20031;-84
2023/07/06 03:18:25;;;;;;;10.77;3.00;;;;;;;17.46;100.00;96331.44;5080861;27;20110;-83
2023/07/06 03:20:52;;;;;;;5.73;2.90;;;;;;;17.42;100.00;96328.38;5081687;28;20027;-84
2023/07/06 03:23:18;;;;;;;6.67;2.77;;;;;;;17.65;100.00;96328.03;5079872;27;20383;-84
2023/07/06 03:25:44;;;;;;;6.30;2.83;;;;;;;17.67;100.00;96325.97;5088362;28;20027;-84
2023/07/06 03:28:10;;;;;;;8.50;2.93;;;;;;;17.51;100.00;96334.34;5086258;28;20027;-84
2023/07/06 03:30:35;;;;;;;6.10;2.60;;;;;;;17.38;100.00;96335.13;5079142;28;20393;-84
2023/07/06 03:33:01;;;;;;;6.13;2.60;;;;;;;17.35;100.00;96336.31;5087567;27;20192;-84
2023/07/06 03:35:28;;;;;;;6.23;2.63;;;;;;;17.25;100.00;96335.06;5078349;28;20034;-83
2023/07/06 03:37:55;;;;;;;6.67;2.57;;;;;;;17.39;100.00;96339.41;5090966;27;20023;-84
2023/07/06 03:40:21;;;;;;;6.77;2.57;;;;;;;17.44;100.00;96336.97;5089001;27;20038;-84
2023/07/06 03:42:47;;;;;;;7.57;3.30;;;;;;;17.48;100.00;96338.22;5078110;28;20118;-84
2023/07/06 03:45:15;;;;;;;5.93;2.70;;;;;;;17.45;100.00;96338.63;5085647;27;20023;-84
2023/07/06 03:47:42;;;;;;;6.67;2.70;;;;;;;17.19;100.00;96339.31;5115549;27;20038;-84
2023/07/06 03:50:18;;;;;;;6.70;2.47;;;;;;;17.12;100.00;96333.97;5091818;27;20027;-83
2023/07/06 03:52:44;;;;;;;6.43;2.63;;;;;;;17.29;100.00;96333.66;5084707;28;20532;-83
2023/07/06 03:55:17;;;;;;;6.97;2.90;;;;;;;17.38;100.00;96337.78;5122303;27;20041;-84
2023/07/06 03:57:45;;;;;;;6.55;3.28;;;;;;;17.24;100.00;96328.94;5105421;27;20130;-84
2023/07/06 04:00:22;;;;;;;8.40;2.93;;;;;;;17.57;100.00;96337.03;5095355;28;20392;-83
2023/07/06 04:02:53;;;;;;;5.33;2.43;;;;;;;17.61;100.00;96330.28;5101707;27;20029;-84
2023/07/06 04:05:31;;;;;;;6.17;2.70;;;;;;;17.37;100.00;96336.13;5103167;27;20028;-83
2023/07/06 04:07:57;;;;;;;5.90;2.63;;;;;;;17.29;100.00;96336.31;5072312;28;20096;-84
2023/07/06 04:10:31;;;;;;;5.30;2.63;;;;;;;17.23;100.00;96332.59;5086905;27;20119;-84
2023/07/06 04:12:57;;;;;;;5.50;2.50;;;;;;;17.32;100.00;96334.06;5072877;28;20088;-83
2023/07/06 04:15:23;;;;;;;8.20;3.27;;;;;;;17.31;100.00;96343.06;5100035;28;20016;-83
2023/07/06 04:17:49;;;;;;;5.77;2.83;;;;;;;17.39;100.00;96334.09;5098249;27;20381;-83
2023/07/06 04:20:21;;;;;;;7.63;2.53;;;;;;;17.25;100.00;96332.41;5090336;28;20038;-83
2023/07/06 04:22:49;;;;;;;8.60;3.30;;;;;;;17.40;100.00;96339.22;5094076;28;20038;-83
2023/07/06 04:25:19;;;;;;;6.73;3.20;;;;;;;17.42;100.00;96337.16;5094385;28;20034;-83
2023/07/06 04:27:47;;;;;;;4.80;2.70;;;;;;;17.17;100.00;96347.50;5088328;28;20040;-83
2023/07/06 04:30:14;;;;;;;7.67;2.70;;;;;;;17.61;100.00;96338.25;5090978;28;20043;-84
2023/07/06 04:32:42;;;;;;;8.50;2.83;;;;;;;17.46;100.00;96334.13;5091785;28;20114;-83
2023/07/06 04:35:12;;;;;;;5.13;2.53;;;;;;;17.73;100.00;96337.66;5084563;28;20043;-83
2023/07/06 04:37:37;;;;;;;7.83;2.80;;;;;;;17.67;100.00;96348.09;5123918;27;20111;-83
2023/07/06 04:40:13;;;;;;;7.17;2.97;;;;;;;17.50;100.00;96338.81;5108785;28;20121;-83
2023/07/06 04:42:46;;;;;;;6.13;2.97;;;;;;;17.80;100.00;96335.84;5110523;27;20030;-83
2023/07/06 04:45:16;;;;;;;5.13;2.42;;;;;;;17.66;100.00;96335.81;5085000;27;20030;-83
2023/07/06 04:47:44;;;;;;;8.27;2.93;;;;;;;17.80;100.00;96335.84;5087221;28;20023;-83
2023/07/06 04:50:17;;;;;;;7.73;2.60;;;;;;;17.93;100.00;96343.06;5079830;28;20218;-83
2023/07/06 04:52:43;;;;;;;7.07;2.78;;;;;;;18.08;100.00;96339.19;5086665;28;20083;-83
2023/07/06 04:55:10;;;;;;;8.07;2.93;;;;;;;18.35;100.00;96340.00;5092408;27;20026;-83
2023/07/06 04:57:37;;;;;;;6.20;2.67;;;;;;;18.31;100.00;96340.63;5087870;27;20026;-84
2023/07/06 05:00:18;;;;;;;9.80;2.90;;;;;;;18.26;100.00;96348.41;5094911;27;20022;-84
2023/07/06 05:02:45;;;;;;;4.87;2.73;;;;;;;18.61;100.00;96349.84;5085183;28;20027;-83
2023/07/06 05:05:39;;;;;;;5.13;2.47;;;;;;;18.78;100.00;96349.44;5069997;28;20097;-83
2023/07/06 05:08:05;;;;;;;5.35;2.67;;;;;;;18.94;100.00;96348.97;5099319;28;20020;-83
2023/07/06 05:10:31;;;;;;;7.63;3.17;;;;;;;19.26;100.00;96349.91;5071657;28;20031;-83
2023/07/06 05:12:56;;;;;;;10.13;3.63;;;;;;;19.45;100.00;96348.19;5093475;28;20024;-83
2023/07/06 05:15:25;;;;;;;5.43;2.80;;;;;;;19.45;100.00;96353.53;5096865;28;20098;-83
2023/07/06 05:17:55;;;;;;;6.33;2.47;;;;;;;19.62;100.00;96351.19;5073531;28;20024;-82
2023/07/06 05:20:25;;;;;;;5.97;2.67;;;;;;;19.92;100.00;96353.28;5089028;27;20635;-84
2023/07/06 05:22:53;;;;;;;5.97;2.70;;;;;;;19.81;100.00;96352.13;5105738;28;20024;-83
2023/07/06 05:25:19;;;;;;;7.77;2.93;;;;;;;20.40;100.00;96344.75;5096456;27;20028;-83
2023/07/06 05:27:46;;;;;;;4.83;2.40;;;;;;;20.77;100.00;96351.00;5099549;28;20797;-84
2023/07/06 05:30:12;;;;;;;8.13;2.60;;;;;;;20.73;100.00;96351.69;5100066;28;20473;-83
2023/07/06 05:32:39;;;;;;;6.97;2.83;;;;;;;21.23;100.00;96351.53;5103780;27;20020;-84
2023/07/06 05:35:05;;;;;;;6.60;2.60;;;;;;;21.50;100.00;96350.22;5099815;27;20173;-85
2023/07/06 05:37:33;;;;;;;4.50;2.60;;;;;;;21.62;100.00;96360.97;5117858;27;20027;-85
2023/07/06 05:40:06;;;;;;;4.73;2.43;;;;;;;21.95;100.00;96357.03;5102409;28;20082;-84
2023/07/06 05:42:32;;;;;;;6.40;2.50;;;;;;;21.96;100.00;96356.81;5093147;28;20024;-85
2023/07/06 05:44:57;;;;;;;5.53;2.90;;;;;;;22.01;100.00;96356.94;5073415;28;20032;-85
2023/07/06 05:47:23;;;;;;;7.90;3.23;;;;;;;22.33;100.00;96362.06;5117659;28;20025;-86
2023/07/06 05:49:48;;;;;;;5.78;2.63;;;;;;;22.12;100.00;96360.69;5099728;28;20536;-85
2023/07/06 05:52:14;;;;;;;9.43;3.30;;;;;;;22.27;100.00;96358.44;5093468;28;20024;-85
2023/07/06 05:54:39;;;;;;;9.43;3.03;;;;;;;22.67;100.00;96357.81;5096840;28;20012;-85
2023/07/06 05:57:09;;;;;;;7.85;2.65;;;;;;;22.94;99.40;96362.72;5100602;28;20020;-85
2023/07/06 05:59:36;;;;;;;4.80;2.47;;;;;;;23.45;96.78;96363.81;5077276;28;20023;-85
2023/07/06 06:02:04;;;;;;;7.60;2.35;;;;;;;23.27;93.65;96368.28;5094628;28;20114;-85
2023/07/06 06:04:30;;;;;;;6.47;2.60;;;;;;;23.05;87.21;96369.94;5106783;28;20362;-85
2023/07/06 06:06:56;;;;;;;9.10;2.75;;;;;;;23.24;85.77;96376.81;5106126;28;20022;-85
2023/07/06 06:09:25;;;;;;;5.78;2.08;;;;;;;23.47;81.60;96369.75;5118944;28;20020;-85
2023/07/06 06:12:03;;;;;;;6.22;2.83;;;;;;;23.60;83.65;96376.72;5082799;28;20434;-86
2023/07/06 06:14:29;;;;;;;6.50;2.60;;;;;;;24.03;83.67;96370.84;5110845;28;20018;-86
2023/07/06 06:16:56;;;;;;;5.53;2.20;;;;;;;25.14;76.50;96368.38;5098785;28;20388;-85
2023/07/06 06:19:22;;;;;;;7.32;4.05;;;;;;;25.70;80.10;96367.47;5081781;28;20380;-83
2023/07/06 06:21:50;;;;;;;9.80;5.20;;;;;;;25.29;88.36;96366.97;5087110;28;20100;-84
2023/07/06 06:24:17;;;;;;;5.03;2.95;;;;;;;25.82;89.24;96377.09;5107338;28;20023;-84
2023/07/06 06:26:42;;;;;;;6.00;2.95;;;;;;;25.36;93.61;96375.69;5071133;28;20028;-84
2023/07/06 06:29:09;;;;;;;7.50;2.72;;;;;;;26.43;83.56;96370.69;5086719;28;20065;-84
2023/07/06 06:31:36;;;;;;;6.40;2.58;;;;;;;26.05;76.94;96369.75;5079129;27;20038;-84
2023/07/06 06:34:02;;;;;;;4.18;2.00;;;;;;;26.00;75.31;96372.41;5106515;28;20050;-85
2023/07/06 06:36:28;;;;;;;7.85;3.00;;;;;;;26.33;70.82;96377.59;5089545;27;20043;-84
2023/07/06 06:38:54;;;;;;;12.82;2.42;;;;;;;26.80;62.10;96374.22;5124343;27;20027;-84
2023/07/06 06:41:21;;;;;;;5.18;2.38;;;;;;;26.99;71.45;96377.31;5089303;27;20027;-84
2023/07/06 06:43:47;;;;;;;4.15;2.15;;;;;;;27.86;60.76;96380.50;5086475;28;20138;-84
2023/07/06 06:46:13;;;;;;;5.55;2.00;;;;;;;27.98;55.38;96379.47;5081105;28;20412;-84
2023/07/06 06:48:39;;;;;;;5.18;2.22;;;;;;;28.74;53.26;96382.28;5118663;27;20019;-84
2023/07/06 06:51:27;;;;;;;5.43;2.40;;;;;;;27.82;53.24;96382.09;5112962;28;20091;-83
2023/07/06 06:53:53;;;;;;;7.78;4.47;;;;;;;28.64;53.48;96385.00;5075221;27;21403;-85
2023/07/06 06:56:19;;;;;;;8.68;5.22;;;;;;;28.85;47.11;96374.97;5105997;27;20022;-84
2023/07/06 06:58:46;;;;;;;4.70;2.78;;;;;;;28.10;45.18;96378.16;5094306;27;20015;-84
2023/07/06 07:01:13;;;;;;;5.22;2.47;;;;;;;27.77;43.03;96383.97;5072219;28;20026;-84
2023/07/06 07:03:39;;;;;;;8.80;2.70;;;;;;;28.68;41.23;96386.06;5099105;28;20046;-84
2023/07/06 07:06:13;;;;;;;6.85;2.60;;;;;;;30.06;38.32;96378.41;5104238;28;20481;-84
2023/07/06 07:08:43;;;;;;;5.10;2.00;;;;;;;29.27;39.47;96379.25;5086670;28;20061;-84
2023/07/06 07:11:10;;;;;;;8.32;2.47;;;;;;;29.69;38.58;96372.63;5085694;28;20110;-84
2023/07/06 07:13:37;;;;;;;5.03;2.10;;;;;;;28.68;37.37;96377.97;5079354;28;20028;-81
2023/07/06 07:16:11;;;;;;;5.20;2.17;;;;;;;29.28;37.09;96381.69;5078071;28;20704;-82
2023/07/06 07:18:38;;;;;;;7.97;2.00;;;;;;;29.98;36.39;96375.47;5083261;28;20393;-82
2023/07/06 07:21:07;;;;;;;3.28;1.63;;;;;;;28.47;37.72;96381.72;5119073;27;20015;-81
2023/07/06 07:23:44;;;;;;;3.83;1.83;;;;;;;29.94;35.24;96375.22;5094316;27;20035;-82
2023/07/06 07:26:13;;;;;;;5.88;1.60;;;;;;;30.58;34.63;96369.94;5098600;27;20061;-81
2023/07/06 07:28:39;;;;;;;3.60;1.60;;;;;;;30.34;34.83;96367.94;5080238;28;20069;-82
2023/07/06 07:31:07;;;;;;;4.57;1.75;;;;;;;31.12;33.18;96368.94;5101611;27;20160;-82
2023/07/06 07:33:34;;;;;;;4.65;1.88;;;;;;;31.44;32.48;96363.72;5119252;27;20020;-84
2023/07/06 07:36:02;;;;;;;10.52;7.05;;;;;;;31.80;31.90;96367.94;5083196;28;20058;-83
2023/07/06 07:38:28;;;;;;;5.93;3.70;;;;;;;31.99;32.46;96371.47;5100964;27;20050;-83
2023/07/06 07:41:01;;;;;;;3.47;1.90;;;;;;;32.37;30.63;96369.59;5096744;28;20027;-83
2023/07/06 07:43:32;;;;;;;4.22;1.83;;;;;;;31.15;32.45;96365.66;5077406;28;20031;-82
2023/07/06 07:46:03;;;;;;;4.28;1.88;;;;;;;30.86;32.23;96360.25;5073537;28;20082;-83
2023/07/06 07:48:32;;;;;;;3.55;1.67;;;;;;;31.25;32.00;96368.25;5075172;28;20118;-84
2023/07/06 07:50:58;;;;;;;3.67;1.73;;;;;;;32.27;31.41;96368.94;5078254;28;20016;-83
2023/07/06 07:53:26;;;;;;;4.45;2.03;;;;;;;31.44;31.34;96365.63;5096418;27;20053;-83
2023/07/06 07:55:56;;;;;;;3.80;2.10;;;;;;;31.63;32.57;96366.50;5087151;27;20460;-82
2023/07/06 07:58:22;;;;;;;4.40;1.98;;;;;;;33.24;29.58;96356.47;5106129;27;20031;-83
2023/07/06 08:00:51;;;;;;;3.75;2.30;;;;;;;30.89;31.50;96367.81;5096895;27;20111;-83
2023/07/06 08:03:17;;;;;;;5.07;2.38;;;;;;;30.87;33.54;96364.56;5104686;27;20027;-83
2023/07/06 08:05:43;;;;;;;5.50;2.50;;;;;;;31.31;32.14;96377.16;5103391;28;20027;-82
2023/07/06 08:08:10;;;;;;;5.47;2.47;;;;;;;31.58;32.80;96366.53;5084448;28;20023;-82
2023/07/06 08:10:38;;;;;;;4.25;2.13;;;;;;;32.58;32.00;96367.38;5111631;28;20026;-83
2023/07/06 08:13:06;;;;;;;4.88;2.40;;;;;;;31.81;31.43;96367.63;5093258;28;20433;-83
2023/07/06 08:15:31;;;;;;;4.40;2.25;;;;;;;33.30;30.36;96355.25;5077896;28;20074;-82
2023/07/06 08:18:00;;;;;;;5.15;1.95;;;;;;;33.29;30.02;96356.34;5117639;27;20043;-82
2023/07/06 08:20:28;;;;;;;6.35;2.85;;;;;;;32.86;30.54;96360.13;5089935;28;20027;-82
2023/07/06 08:22:57;;;;;;;7.65;2.33;;;;;;;33.72;29.88;96353.34;5108063;28;20031;-82
2023/07/06 08:25:25;;;;;;;4.47;2.10;;;;;;;34.78;28.96;96360.25;5076517;28;20111;-82
2023/07/06 08:27:52;;;;;;;7.28;2.63;;;;;;;34.55;28.53;96359.44;5082907;27;20027;-84
2023/07/06 08:30:22;;;;;;;6.10;2.30;;;;;;;32.80;29.91;96365.94;5090645;28;20019;-84
2023/07/06 08:32:49;;;;;;;5.60;2.60;;;;;;;32.85;30.61;96372.09;5083846;28;20035;-83
2023/07/06 08:35:24;;;;;;;5.50;2.97;;;;;;;33.09;29.79;96361.06;5096395;28;20011;-83
2023/07/06 08:37:54;;;;;;;8.27;2.30;;;;;;;33.99;29.46;96364.22;5098141;27;20023;-83
2023/07/06 08:40:24;;;;;;;4.72;2.38;;;;;;;34.15;29.10;96363.91;5096489;27;20023;-83
2023/07/06 08:42:50;;;;;;;6.45;2.60;;;;;;;32.75;30.74;96364.09;5087943;28;20103;-83
2023/07/06 08:45:19;;;;;;;4.82;2.60;;;;;;;34.23;29.04;96360.44;5095629;27;20023;-83
2023/07/06 08:47:47;;;;;;;4.53;2.33;;;;;;;34.11;29.41;96362.94;5095786;27;20598;-83
2023/07/06 08:50:15;;;;;;;5.05;2.53;;;;;;;32.86;29.83;96360.13;5088282;28;20087;-84
2023/07/06 08:52:42;;;;;;;4.40;2.55;;;;;;;31.86;29.88;96367.56;5074208;28;20023;-84
2023/07/06 08:55:15;;;;;;;5.40;2.35;;;;;;;32.48;30.35;96362.09;5080887;27;20042;-84
2023/07/06 08:57:44;;;;;;;6.07;3.15;;;;;;;33.06;29.55;96367.13;5110176;28;20437;-83
2023/07/06 09:00:25;;;;;;;6.15;2.58;;;;;;;32.96;30.48;96361.06;5089202;27;20022;-84
2023/07/06 09:02:59;;;;;;;5.82;2.78;;;;;;;31.65;30.69;96356.13;5090096;28;20404;-84
2023/07/06 09:05:31;;;;;;;7.65;2.67;;;;;;;30.66;33.22;96362.00;5080789;28;20556;-83
2023/07/06 09:08:03;;;;;;;5.10;2.67;;;;;;;30.40;33.01;96357.88;5096659;27;20019;-86
2023/07/06 09:10:30;;;;;;;6.95;2.47;;;;;;;30.13;32.18;96369.97;5082657;28;20027;-82
2023/07/06 09:13:25;;;;;;;5.18;2.50;;;;;;;30.11;32.20;96364.00;5087655;27;20019;-83
2023/07/06 09:15:57;;;;;;;6.50;2.20;;;;;;;32.49;31.02;96358.25;5082571;28;20035;-83
2023/07/06 09:18:23;;;;;;;5.10;2.10;;;;;;;31.78;29.52;96354.59;5109954;28;20027;-83
2023/07/06 09:20:50;;;;;;;5.65;2.42;;;;;;;32.95;28.41;96353.97;5096985;28;20018;-83
2023/07/06 09:23:16;;;;;;;4.25;2.20;;;;;;;32.94;27.88;96353.16;5085450;28;20110;-83
2023/07/06 09:25:45;;;;;;;5.18;2.83;;;;;;;30.20;31.36;96359.63;5105905;28;20030;-83
2023/07/06 09:28:29;;;;;;;4.68;2.25;;;;;;;32.10;29.72;96353.94;5076650;28;20028;-82
2023/07/06 09:31:08;;;;;;;5.78;2.70;;;;;;;32.09;29.80;96365.09;5117267;27;20030;-83
2023/07/06 09:33:43;;;;;;;6.97;2.90;;;;;;;32.17;29.91;96356.28;5098739;28;20384;-83
2023/07/06 09:36:14;;;;;;;5.43;2.22;;;;;;;30.99;30.81;96351.44;5090945;28;20019;-83
2023/07/06 09:38:45;;;;;;;4.75;2.58;;;;;;;30.03;31.33;96359.16;5104110;27;20037;-83
2023/07/06 09:41:20;;;;;;;4.38;2.50;;;;;;;31.34;30.03;96360.31;5098689;27;20027;-84
2023/07/06 09:43:46;;;;;;;6.10;2.40;;;;;;;32.70;28.73;96352.50;5078651;27;20023;-83
2023/07/06 09:46:14;;;;;;;4.10;2.25;;;;;;;33.13;28.75;96344.94;5074167;28;20077;-84
2023/07/06 09:48:41;;;;;;;3.65;2.13;;;;;;;34.53;27.46;96342.56;5087303;28;20034;-83
2023/07/06 09:51:21;;;;;;;5.45;2.40;;;;;;;32.89;28.24;96352.44;5091665;28;20015;-83
2023/07/06 09:54:13;;;;;;;5.30;2.53;;;;;;;33.70;26.94;96345.50;5098175;28;20072;-83
2023/07/06 09:56:38;;;;;;;4.85;2.45;;;;;;;34.53;26.29;96344.50;5083238;28;20027;-83
2023/07/06 09:59:04;;;;;;;4.03;2.38;;;;;;;34.33;26.05;96343.81;5087142;28;20385;-83
2023/07/06 10:01:34;;;;;;;5.43;2.75;;;;;;;34.83;26.14;96346.44;5093911;27;20016;-83
2023/07/06 10:04:21;;;;;;;4.15;2.40;;;;;;;34.47;25.39;96350.06;5110923;27;20019;-83
2023/07/06 10:07:00;;;;;;;5.70;3.03;;;;;;;33.52;25.83;96352.66;5082711;28;20057;-82
2023/07/06 10:09:32;;;;;;;5.65;2.75;;;;;;;34.22;25.16;96353.38;5120281;27;20034;-83
2023/07/06 10:12:06;;;;;;;;;;;;;;;32.81;25.83;96351.22;5103431;28;20023;-83
2023/07/06 10:14:40;;;;;;;6.45;2.80;;;;;;;33.47;25.65;96352.75;5095897;27;19962;-83
2023/07/06 10:17:27;;;;;;;4.30;2.60;;;;;;;34.17;24.54;96348.84;5120067;27;20023;-82
2023/07/06 10:20:05;;;;;;;6.15;2.33;;;;;;;34.13;24.87;96350.56;5081048;27;20054;-83
2023/07/06 10:22:49;;;;;;;5.78;2.60;;;;;;;34.48;25.75;96340.75;5083952;28;20024;-83
2023/07/06 10:25:39;;;;;;;4.20;2.30;;;;;;;33.42;27.13;96347.38;5092862;27;20028;-81
2023/07/06 10:28:14;;;;;;;4.28;2.60;;;;;;;32.84;27.61;96358.78;5084340;28;20043;-83
2023/07/06 10:30:46;;;;;;;6.07;2.80;;;;;;;34.53;26.10;96348.03;5105143;27;20023;-82
2023/07/06 10:33:17;;;;;;;;;;;;;;;34.29;25.49;96348.28;5080187;28;20019;-82
2023/07/06 10:35:50;;;;;;;4.65;2.30;;;;;;;33.53;26.48;96361.63;5075829;28;19919;-83
2023/07/06 10:38:16;;;;;;;5.10;2.83;;;;;;;34.52;24.96;96348.34;5076251;28;20023;-82
2023/07/06 10:41:11;;;;;;;5.97;2.63;;;;;;;33.91;25.69;96355.97;5099609;27;20031;-82
2023/07/06 10:43:40;;;;;;;3.78;2.28;;;;;;;33.68;25.31;96346.91;5097970;27;20484;-82
2023/07/06 10:46:34;;;;;;;6.75;3.42;;;;;;;34.23;25.66;96350.31;5083020;28;20032;-82
2023/07/06 10:49:18;;;;;;;5.25;2.72;;;;;;;33.84;25.92;96345.47;5079269;27;20031;-82
2023/07/06 10:51:56;;;;;;;4.35;2.45;;;;;;;31.53;27.42;96347.59;5092647;28;20027;-82
2023/07/06 10:54:25;;;;;;;3.65;2.40;;;;;;;31.31;27.30;96350.78;5103351;27;20040;-82
2023/07/06 10:57:02;;;;;;;4.55;2.42;;;;;;;33.12;25.74;96342.53;5112502;27;20023;-82
2023/07/06 10:59:44;;;;;;;7.30;2.88;;;;;;;33.09;26.83;96343.94;5091723;28;20053;-82
2023/07/06 11:02:33;;;;;;;4.20;2.40;;;;;;;34.55;24.19;96347.72;5086000;27;20064;-81
2023/07/06 11:05:09;;;;;;;4.47;2.42;;;;;;;33.00;25.33;96341.09;5089146;27;20027;-82
2023/07/06 11:07:58;;;;;;;5.50;2.70;;;;;;;32.80;26.59;96349.59;5111335;28;20027;-82
2023/07/06 11:10:31;;;;;;;6.75;2.83;;;;;;;32.50;26.23;96349.00;5103147;27;20079;-82
2023/07/06 11:13:01;;;;;;;6.05;2.70;;;;;;;33.23;25.59;96350.19;5100807;28;20557;-82
2023/07/06 11:15:43;;;;;;;4.85;2.42;;;;;;;33.57;25.27;96349.03;5093444;27;20015;-83
2023/07/06 11:18:21;;;;;;;3.83;2.22;;;;;;;33.56;25.06;96345.47;5075585;28;20032;-83
2023/07/06 11:21:16;;;;;;;4.05;2.53;;;;;;;32.91;24.10;96347.50;5079123;28;20031;-82
2023/07/06 11:23:45;;;;;;;7.45;2.67;;;;;;;32.78;24.13;96347.16;5100363;27;20730;-83
2023/07/06 11:26:47;;;;;;;5.18;2.72;;;;;;;30.56;27.18;96296.16;5087385;27;20391;-83
2023/07/06 11:29:26;;;;;;;5.57;2.80;;;;;;;33.67;26.53;96350.72;5079361;28;20035;-81
2023/07/06 11:32:03;;;;;;;3.83;2.40;;;;;;;33.67;26.93;96343.38;5090730;27;20507;-83
2023/07/06 11:34:56;;;;;;;5.50;2.88;;;;;;;33.04;27.16;96344.84;5076288;27;20012;-82
2023/07/06 11:37:43;;;;;;;3.88;2.25;;;;;;;32.15;27.90;96353.84;5110490;27;20038;-82
2023/07/06 11:40:41;;;;;;;5.07;2.63;;;;;;;31.83;28.26;96359.19;5078309;28;20074;-82
2023/07/06 11:43:32;;;;;;;5.03;2.22;;;;;;;32.29;27.84;96353.09;5073931;28;20015;-82
2023/07/06 11:46:23;;;;;;;5.35;2.70;;;;;;;33.87;25.71;96339.41;5096631;27;20114;-82
2023/07/06 11:49:09;;;;;;;5.53;2.63;;;;;;;34.19;25.40;96340.34;5081156;27;20030;-82